createdAt,value
2019-05-09T00:01:23.676Z,5.58
2019-05-09T00:03:53.806Z,6.08
2019-05-09T00:06:23.902Z,6.28
2019-05-09T00:08:53.261Z,5.95
2019-05-09T00:11:21.838Z,6.47
2019-05-09T00:13:50.356Z,6.10
2019-05-09T00:16:18.903Z,6.35
2019-05-09T00:18:47.408Z,6.35
2019-05-09T00:21:17.515Z,6.28
2019-05-09T00:23:45.993Z,6.80
2019-05-09T00:26:14.496Z,6.60
2019-05-09T00:28:44.618Z,6.78
2019-05-09T00:31:30.732Z,6.75
2019-05-09T00:34:00.879Z,6.40
2019-05-09T00:36:29.354Z,6.35
2019-05-09T00:38:57.837Z,6.85
2019-05-09T00:41:32.498Z,6.93
2019-05-09T00:44:23.142Z,6.28
2019-05-09T00:46:53.565Z,6.97
2019-05-09T00:49:23.760Z,6.47
2019-05-09T00:51:54.411Z,6.53
2019-05-09T00:54:24.024Z,6.45
2019-05-09T00:56:55.109Z,6.70
2019-05-09T00:59:24.205Z,6.75
2019-05-09T01:01:54.668Z,7.73
2019-05-09T01:04:24.119Z,6.90
2019-05-09T01:06:54.033Z,7.07
2019-05-09T01:09:24.208Z,6.57
2019-05-09T01:11:54.359Z,6.62
2019-05-09T01:14:23.592Z,7.17
2019-05-09T01:16:53.528Z,6.97
2019-05-09T01:19:23.318Z,6.27
2019-05-09T01:21:54.054Z,6.78
2019-05-09T01:24:23.288Z,7.35
2019-05-09T01:26:54.018Z,7.10
2019-05-09T01:29:23.195Z,7.10
2019-05-09T01:31:54.102Z,6.95
2019-05-09T01:34:24.224Z,6.77
2019-05-09T01:37:06.339Z,6.75
2019-05-09T01:39:36.155Z,7.17
2019-05-09T01:42:05.170Z,7.62
2019-05-09T01:44:33.735Z,7.20
2019-05-09T01:47:03.765Z,7.22
2019-05-09T01:49:34.090Z,7.57
2019-05-09T01:52:03.521Z,7.47
2019-05-09T01:54:33.241Z,7.55
2019-05-09T01:57:03.247Z,8.00
2019-05-09T01:59:34.014Z,7.73
2019-05-09T02:02:08.071Z,7.97
2019-05-09T02:04:33.453Z,8.50
2019-05-09T02:07:04.094Z,8.60
2019-05-09T02:09:34.270Z,8.27
2019-05-09T02:12:03.866Z,9.13
2019-05-09T02:14:43.784Z,8.73
2019-05-09T02:17:19.974Z,8.80
2019-05-09T02:19:48.526Z,9.73
2019-05-09T02:22:35.712Z,8.83
2019-05-09T02:25:06.474Z,9.53
2019-05-09T02:27:34.952Z,9.03
2019-05-09T02:30:05.847Z,9.97
2019-05-09T02:32:35.715Z,9.73
2019-05-09T02:35:08.544Z,10.00
2019-05-09T02:37:38.974Z,9.93
2019-05-09T02:40:09.827Z,10.17
2019-05-09T02:42:39.617Z,10.43
2019-05-09T02:45:09.105Z,11.07
2019-05-09T02:47:38.690Z,11.70
2019-05-09T02:50:09.657Z,11.40
2019-05-09T02:52:39.603Z,11.70
2019-05-09T02:55:11.512Z,11.00
2019-05-09T02:57:40.396Z,11.70
2019-05-09T03:00:19.866Z,11.07
2019-05-09T03:02:48.954Z,11.10
2019-05-09T03:05:19.679Z,11.13
2019-05-09T03:07:50.846Z,11.60
2019-05-09T03:10:20.643Z,11.77
2019-05-09T03:12:50.452Z,11.73
2019-05-09T03:15:19.736Z,11.87
2019-05-09T03:17:49.316Z,12.43
2019-05-09T03:20:39.214Z,12.23
2019-05-09T03:23:09.775Z,12.80
2019-05-09T03:25:40.893Z,13.27
2019-05-09T03:28:28.216Z,14.00
2019-05-09T03:31:00.083Z,14.53
2019-05-09T03:33:34.726Z,14.13
2019-05-09T03:35:59.687Z,14.17
2019-05-09T03:38:28.489Z,15.43
2019-05-09T03:57:08.027Z,14.20
2019-05-09T04:00:10.916Z,14.47
2019-05-09T04:03:27.670Z,15.07
2019-05-09T04:06:02.105Z,15.30
2019-05-09T04:08:28.200Z,16.03
2019-05-09T04:11:02.628Z,15.90
2019-05-09T04:13:35.207Z,16.27
2019-05-09T04:16:03.691Z,15.90
2019-05-09T04:18:32.199Z,16.43
2019-05-09T04:21:00.747Z,15.07
2019-05-09T04:23:29.258Z,15.87
2019-05-09T04:26:11.448Z,15.73
2019-05-09T04:28:40.048Z,15.73
2019-05-09T04:31:08.530Z,16.13
2019-05-09T04:33:38.289Z,15.63
2019-05-09T04:36:08.341Z,16.30
2019-05-09T04:38:39.794Z,15.13
2019-05-09T04:41:07.830Z,16.67
2019-05-09T04:43:39.755Z,16.57
2019-05-09T04:46:13.074Z,17.40
2019-05-09T04:48:40.458Z,16.50
2019-05-09T04:51:09.254Z,16.77
2019-05-09T04:53:39.857Z,16.00
2019-05-09T04:56:17.558Z,16.53
2019-05-09T04:58:48.226Z,17.43
2019-05-09T05:01:34.208Z,16.87
2019-05-09T05:04:03.093Z,16.33
2019-05-09T05:06:31.626Z,16.50
2019-05-09T05:09:00.164Z,17.67
2019-05-09T05:11:29.047Z,17.93
2019-05-09T05:13:58.588Z,16.17
2019-05-09T05:16:27.527Z,16.80
2019-05-09T05:18:58.184Z,16.97
2019-05-09T05:21:28.019Z,15.77
2019-05-09T05:23:58.040Z,16.53
2019-05-09T05:26:27.683Z,16.47
2019-05-09T05:28:58.067Z,16.53
2019-05-09T05:31:28.559Z,16.77
2019-05-09T05:34:14.453Z,16.20
2019-05-09T05:36:42.934Z,15.73
2019-05-09T05:39:11.445Z,17.27
2019-05-09T05:41:39.928Z,16.97
2019-05-09T05:44:08.673Z,16.40
2019-05-09T05:46:38.741Z,17.57
2019-05-09T05:49:08.080Z,17.00
2019-05-09T05:51:51.530Z,16.63
2019-05-09T05:54:20.981Z,16.47
2019-05-09T05:56:49.606Z,16.97
2019-05-09T05:59:18.661Z,15.87
2019-05-09T06:01:47.880Z,15.70
2019-05-09T06:04:18.549Z,16.33
2019-05-09T06:06:48.080Z,16.70
2019-05-09T06:09:18.906Z,16.60
2019-05-09T06:11:48.504Z,16.77
2019-05-09T06:14:18.489Z,15.93
2019-05-09T06:16:48.641Z,15.53
2019-05-09T06:19:17.976Z,15.60
2019-05-09T06:21:48.468Z,15.48
2019-05-09T06:24:17.755Z,15.40
2019-05-09T06:26:47.895Z,16.17
2019-05-09T06:29:17.756Z,15.60
2019-05-09T06:31:48.355Z,17.12
2019-05-09T06:34:18.707Z,15.93
2019-05-09T06:36:48.938Z,15.85
2019-05-09T06:39:17.956Z,14.80
2019-05-09T06:41:48.309Z,16.20
2019-05-09T06:44:20.688Z,16.07
2019-05-09T06:46:58.909Z,15.90
2019-05-09T06:49:31.770Z,17.33
2019-05-09T06:51:59.263Z,16.00
2019-05-09T06:54:27.982Z,15.90
2019-05-09T06:56:58.513Z,15.50
2019-05-09T06:59:28.308Z,15.60
2019-05-09T07:01:58.596Z,15.35
2019-05-09T07:04:28.759Z,15.10
2019-05-09T07:06:58.947Z,14.93
2019-05-09T07:09:32.050Z,16.05
2019-05-09T07:12:01.362Z,15.25
2019-05-09T07:14:37.933Z,15.37
2019-05-09T07:17:04.478Z,15.30
2019-05-09T07:19:32.970Z,14.93
2019-05-09T07:22:03.118Z,14.38
2019-05-09T07:24:32.178Z,16.17
2019-05-09T07:27:00.685Z,16.13
2019-05-09T07:29:33.255Z,15.15
2019-05-09T07:32:10.535Z,14.75
2019-05-09T07:34:43.355Z,14.00
2019-05-09T07:37:13.315Z,14.20
2019-05-09T07:39:41.814Z,14.18
2019-05-09T07:42:10.328Z,14.10
2019-05-09T07:44:48.359Z,14.07
2019-05-09T07:47:09.047Z,13.37
2019-05-09T07:49:37.798Z,15.48
2019-05-09T07:52:09.918Z,15.28
2019-05-09T07:54:37.745Z,16.77
2019-05-09T07:57:08.363Z,15.88
2019-05-09T07:59:38.763Z,16.23
2019-05-09T08:02:08.797Z,13.62
2019-05-09T08:04:38.587Z,14.10
2019-05-09T08:07:08.391Z,14.33
2019-05-09T08:09:38.773Z,13.50
2019-05-09T08:12:07.611Z,13.78
2019-05-09T08:14:37.738Z,14.93
2019-05-09T08:17:08.551Z,14.40
2019-05-09T08:19:38.014Z,14.83
2019-05-09T08:22:08.002Z,14.78
2019-05-09T08:24:38.006Z,14.78
2019-05-09T08:27:08.527Z,13.88
2019-05-09T08:29:38.692Z,13.13
2019-05-09T08:32:07.534Z,12.37
2019-05-09T08:34:37.798Z,12.10
2019-05-09T08:37:08.170Z,13.90
2019-05-09T08:39:38.268Z,12.70
2019-05-09T08:42:08.445Z,12.98
2019-05-09T08:44:38.271Z,12.40
2019-05-09T08:47:07.950Z,12.70
2019-05-09T08:49:46.524Z,12.07
2019-05-09T08:52:16.473Z,9.98
2019-05-09T08:54:58.280Z,9.95
2019-05-09T08:57:28.818Z,12.13
2019-05-09T08:59:58.945Z,12.03
2019-05-09T09:02:28.315Z,11.08
2019-05-09T09:04:58.291Z,8.28
2019-05-09T09:07:29.670Z,8.00
2019-05-09T09:09:57.836Z,7.17
2019-05-09T09:12:34.205Z,7.90
2019-05-09T09:14:58.624Z,7.80
2019-05-09T09:17:27.941Z,8.25
2019-05-09T09:19:58.276Z,8.03
2019-05-09T09:22:28.339Z,5.72
2019-05-09T09:24:58.696Z,8.33
2019-05-09T09:27:27.942Z,9.03
2019-05-09T09:29:58.797Z,9.05
2019-05-09T09:32:28.153Z,10.30
2019-05-09T09:34:58.754Z,9.58
2019-05-09T09:37:37.502Z,9.05
2019-05-09T09:39:58.352Z,8.55
2019-05-09T09:42:28.166Z,7.78
2019-05-09T09:44:58.611Z,8.53
2019-05-09T09:47:28.612Z,8.13
2019-05-09T09:49:59.471Z,8.23
2019-05-09T09:52:29.324Z,8.20
2019-05-09T09:54:58.315Z,8.40
2019-05-09T09:57:28.835Z,8.18
2019-05-09T09:59:59.090Z,8.50
2019-05-09T10:02:29.444Z,9.08
2019-05-09T10:04:57.919Z,8.55
2019-05-09T10:07:27.937Z,8.38
2019-05-09T10:09:58.332Z,8.58
2019-05-09T10:12:28.699Z,9.05
2019-05-09T10:14:58.514Z,7.97
2019-05-09T10:17:38.653Z,7.78
2019-05-09T10:20:24.897Z,7.35
2019-05-09T10:22:59.702Z,6.08
2019-05-09T10:25:23.598Z,6.12
2019-05-09T10:27:52.085Z,5.78
2019-05-09T10:30:23.643Z,5.17
2019-05-09T10:32:52.107Z,4.65
2019-05-09T10:35:23.781Z,4.35
2019-05-09T10:37:52.362Z,4.17
2019-05-09T10:40:22.830Z,4.12
2019-05-09T10:43:01.861Z,3.30
2019-05-09T10:45:34.691Z,3.50
2019-05-09T10:48:03.182Z,3.90
2019-05-09T10:50:34.435Z,3.67
2019-05-09T10:53:01.878Z,3.87
2019-05-09T10:55:30.343Z,2.85
2019-05-09T10:58:02.251Z,3.25
2019-05-09T11:00:29.113Z,3.05
2019-05-09T11:02:58.340Z,3.30
2019-05-09T11:05:27.790Z,3.15
2019-05-09T11:07:58.615Z,3.05
2019-05-09T11:10:30.155Z,2.83
2019-05-09T11:12:58.516Z,2.58
2019-05-09T11:15:27.093Z,3.33
2019-05-09T11:17:57.631Z,3.50
2019-05-09T11:20:28.320Z,3.62
2019-05-09T11:22:58.181Z,3.30
2019-05-09T11:25:27.788Z,3.52
2019-05-09T11:28:10.060Z,3.52
2019-05-09T11:30:28.182Z,4.17
2019-05-09T11:32:56.680Z,4.40
2019-05-09T11:35:25.167Z,4.00
2019-05-09T11:37:53.638Z,4.72
2019-05-09T11:40:22.161Z,4.53
2019-05-09T11:42:50.605Z,4.47
2019-05-09T11:45:19.156Z,4.25
2019-05-09T11:47:47.630Z,5.65
2019-05-09T11:50:22.114Z,5.08
2019-05-09T11:52:48.936Z,5.35
2019-05-09T11:55:29.776Z,5.05
2019-05-09T11:57:48.476Z,5.03
2019-05-09T12:00:17.961Z,5.30
2019-05-09T12:02:46.490Z,4.83
2019-05-09T12:05:14.995Z,4.90
2019-05-09T12:07:43.523Z,5.47
2019-05-09T12:10:12.257Z,4.70
2019-05-09T12:12:40.721Z,5.12
2019-05-09T12:15:10.483Z,4.65
2019-05-09T12:17:51.031Z,4.20
2019-05-09T12:20:13.449Z,3.83
2019-05-09T12:22:40.012Z,4.00
2019-05-09T12:25:08.727Z,3.95
2019-05-09T12:27:37.280Z,3.90
2019-05-09T12:30:07.818Z,3.65
2019-05-09T12:32:38.536Z,3.33
2019-05-09T12:35:08.906Z,3.17
2019-05-09T12:37:37.789Z,3.20
2019-05-09T12:40:08.327Z,2.45
2019-05-09T12:42:39.182Z,2.05
2019-05-09T12:45:08.387Z,2.08
2019-05-09T12:47:39.755Z,1.95
2019-05-09T12:50:08.584Z,2.22
2019-05-09T12:52:39.251Z,2.20
2019-05-09T12:55:08.324Z,2.52
2019-05-09T12:57:38.673Z,2.62
2019-05-09T13:00:08.139Z,3.20
2019-05-09T13:02:38.790Z,3.50
2019-05-09T13:05:08.785Z,3.42
2019-05-09T13:07:40.051Z,3.62
2019-05-09T13:10:08.926Z,4.03
2019-05-09T13:12:38.834Z,3.92
2019-05-09T13:15:08.906Z,3.40
2019-05-09T13:17:39.323Z,4.20
2019-05-09T13:20:08.863Z,3.90
2019-05-09T13:22:37.348Z,3.77
2019-05-09T13:25:09.155Z,4.10
2019-05-09T13:27:38.733Z,3.85
2019-05-09T13:30:09.379Z,3.87
2019-05-09T13:32:38.007Z,3.75
2019-05-09T13:35:06.849Z,3.62
2019-05-09T13:37:38.047Z,3.90
2019-05-09T13:40:08.550Z,3.67
2019-05-09T13:42:40.062Z,3.30
2019-05-09T13:45:08.787Z,2.92
2019-05-09T13:47:38.054Z,4.28
2019-05-09T13:50:08.954Z,4.00
2019-05-09T13:52:38.118Z,3.35
2019-05-09T13:55:08.656Z,4.17
2019-05-09T13:57:36.876Z,3.47
2019-05-09T14:00:08.765Z,3.12
2019-05-09T14:02:38.480Z,3.52
2019-05-09T14:05:08.935Z,3.30
2019-05-09T14:07:37.884Z,3.27
2019-05-09T14:10:08.931Z,3.50
2019-05-09T14:12:38.195Z,2.75
2019-05-09T14:15:08.474Z,3.20
2019-05-09T14:17:48.220Z,3.90
2019-05-09T14:20:08.835Z,3.45
2019-05-09T14:22:38.566Z,3.70
2019-05-09T14:25:10.868Z,3.95
2019-05-09T14:27:37.675Z,3.60
2019-05-09T14:30:08.063Z,4.03
2019-05-09T14:32:39.743Z,3.90
2019-05-09T14:35:08.509Z,3.70
2019-05-09T14:37:38.910Z,3.75
2019-05-09T14:40:10.122Z,4.10
2019-05-09T14:42:40.740Z,3.40
2019-05-09T14:45:09.439Z,3.45
2019-05-09T14:47:41.894Z,3.20
2019-05-09T14:50:09.977Z,3.45
2019-05-09T14:52:38.584Z,3.50
2019-05-09T14:55:08.342Z,3.65
2019-05-09T14:57:38.329Z,2.92
2019-05-09T15:00:08.618Z,3.05
2019-05-09T15:02:38.899Z,3.15
2019-05-09T15:05:09.529Z,3.00
2019-05-09T15:07:38.884Z,3.22
2019-05-09T15:10:08.742Z,4.08
2019-05-09T15:12:39.071Z,3.37
2019-05-09T15:15:08.999Z,4.30
2019-05-09T15:17:38.180Z,3.00
2019-05-09T15:20:08.854Z,3.83
2019-05-09T15:22:38.629Z,3.75
2019-05-09T15:25:08.801Z,3.60
2019-05-09T15:27:38.577Z,3.30
2019-05-09T15:30:08.899Z,4.58
2019-05-09T15:32:37.856Z,2.75
2019-05-09T15:35:09.010Z,3.72
2019-05-09T15:37:38.504Z,6.83
2019-05-09T15:40:08.690Z,11.80
2019-05-09T15:42:38.959Z,8.33
2019-05-09T15:45:08.636Z,7.50
2019-05-09T15:47:38.057Z,14.75
2019-05-09T15:50:19.296Z,3.40
2019-05-09T15:52:38.573Z,2.70
2019-05-09T15:55:09.456Z,2.83
2019-05-09T15:57:37.852Z,2.47
2019-05-09T16:00:08.890Z,2.62
2019-05-09T16:02:39.113Z,2.62
2019-05-09T16:05:10.431Z,2.75
2019-05-09T16:07:37.887Z,2.85
2019-05-09T16:10:08.591Z,2.30
2019-05-09T16:12:38.352Z,2.55
2019-05-09T16:15:07.908Z,2.40
2019-05-09T16:17:39.385Z,2.40
2019-05-09T16:20:08.455Z,2.30
2019-05-09T16:22:39.232Z,2.10
2019-05-09T16:25:09.130Z,2.25
2019-05-09T16:27:38.073Z,1.98
2019-05-09T16:30:08.890Z,2.17
2019-05-09T16:32:37.808Z,1.98
2019-05-09T16:35:07.939Z,2.20
2019-05-09T16:37:56.794Z,2.20
2019-05-09T16:40:08.449Z,2.10
2019-05-09T16:42:38.110Z,2.33
2019-05-09T16:45:08.052Z,2.33
2019-05-09T16:47:36.728Z,2.25
2019-05-09T16:50:10.018Z,2.05
2019-05-09T16:52:42.991Z,1.90
2019-05-09T16:55:09.638Z,2.60
2019-05-09T16:57:38.162Z,2.35
2019-05-09T17:00:09.734Z,2.30
2019-05-09T17:02:38.321Z,2.25
2019-05-09T17:05:08.363Z,2.10
2019-05-09T17:07:38.407Z,2.00
2019-05-09T17:10:08.514Z,2.40
2019-05-09T17:12:37.009Z,2.00
2019-05-09T17:15:08.535Z,2.10
2019-05-09T17:17:38.527Z,1.90
2019-05-09T17:20:08.850Z,2.33
2019-05-09T17:23:08.228Z,2.10
2019-05-09T17:25:28.023Z,2.47
2019-05-09T17:27:56.909Z,2.40
2019-05-09T17:30:28.472Z,2.22
2019-05-09T17:32:58.279Z,2.40
2019-05-09T17:35:28.017Z,2.15
2019-05-09T17:37:56.515Z,2.00
2019-05-09T17:40:25.004Z,1.80
2019-05-09T17:42:53.477Z,1.75
2019-05-09T17:45:21.973Z,1.87
2019-05-09T17:47:50.453Z,1.95
2019-05-09T17:50:19.097Z,1.80
2019-05-09T17:52:48.143Z,1.95
2019-05-09T17:55:18.161Z,2.10
2019-05-09T17:57:47.965Z,2.10
2019-05-09T18:00:21.650Z,2.37
2019-05-09T18:02:48.611Z,2.22
2019-05-09T18:05:18.137Z,3.83
2019-05-09T18:07:48.519Z,3.02
2019-05-09T18:10:18.593Z,2.30
2019-05-09T18:12:47.936Z,2.27
2019-05-09T18:15:18.661Z,2.20
2019-05-09T18:17:48.013Z,2.17
2019-05-09T18:20:17.841Z,2.20
2019-05-09T18:22:47.890Z,2.12
2019-05-09T18:25:18.731Z,2.08
2019-05-09T18:27:48.781Z,2.40
2019-05-09T18:30:18.490Z,2.62
2019-05-09T18:32:57.945Z,2.33
2019-05-09T18:35:28.114Z,2.33
2019-05-09T18:37:58.736Z,2.77
2019-05-09T18:40:28.199Z,2.55
2019-05-09T18:42:58.358Z,2.40
2019-05-09T18:45:28.337Z,2.63
2019-05-09T18:47:58.071Z,2.57
2019-05-09T18:50:27.017Z,2.22
2019-05-09T18:52:55.505Z,2.20
2019-05-09T18:55:24.021Z,2.10
2019-05-09T18:57:52.469Z,2.87
2019-05-09T19:00:21.762Z,2.30
2019-05-09T19:02:50.522Z,2.27
2019-05-09T19:05:19.328Z,2.20
2019-05-09T19:07:47.792Z,2.20
2019-05-09T19:10:16.614Z,2.03
2019-05-09T19:12:45.088Z,2.20
2019-05-09T19:15:15.857Z,2.20
2019-05-09T19:17:48.415Z,2.10
2019-05-09T19:20:18.681Z,2.40
2019-05-09T19:22:47.149Z,2.30
2019-05-09T19:25:15.638Z,2.30
2019-05-09T19:27:44.102Z,2.60
2019-05-09T19:30:12.929Z,2.40
2019-05-09T19:32:41.398Z,2.60
2019-05-09T19:35:09.959Z,2.50
2019-05-09T19:37:38.427Z,2.70
2019-05-09T19:40:07.858Z,2.80
2019-05-09T19:42:36.322Z,2.90
2019-05-09T19:45:07.163Z,2.83
2019-05-09T19:47:35.688Z,3.57
2019-05-09T19:50:06.317Z,3.27
2019-05-09T19:52:38.196Z,3.70
2019-05-09T19:55:05.930Z,3.50
2019-05-09T19:57:34.396Z,3.50
2019-05-09T20:00:03.326Z,3.65
2019-05-09T20:02:31.789Z,3.30
2019-05-09T20:05:00.288Z,3.60
2019-05-09T20:07:28.752Z,3.00
2019-05-09T20:10:10.767Z,3.30
2019-05-09T20:12:46.697Z,3.20
2019-05-09T20:15:17.264Z,3.45
2019-05-09T20:17:45.744Z,3.43
2019-05-09T20:20:14.574Z,3.70
2019-05-09T20:22:52.466Z,3.53
2019-05-09T20:25:14.386Z,3.83
2019-05-09T20:27:42.843Z,3.43
2019-05-09T20:30:12.944Z,3.73
2019-05-09T20:32:41.497Z,3.83
2019-05-09T20:35:10.012Z,3.73
2019-05-09T20:37:38.783Z,4.00
2019-05-09T20:40:08.037Z,3.40
2019-05-09T20:42:36.710Z,3.80
2019-05-09T20:45:06.506Z,3.50
2019-05-09T20:47:35.185Z,3.70
2019-05-09T20:50:05.502Z,3.40
2019-05-09T20:52:34.176Z,3.30
2019-05-09T20:55:02.829Z,3.70
2019-05-09T20:57:31.511Z,3.57
2019-05-09T21:00:00.164Z,3.00
2019-05-09T21:02:28.844Z,3.65
2019-05-09T21:04:57.496Z,3.60
2019-05-09T21:07:26.174Z,3.20
2019-05-09T21:09:54.823Z,3.43
2019-05-09T21:12:23.501Z,3.70
2019-05-09T21:14:52.157Z,3.57
2019-05-09T21:17:20.855Z,3.33
2019-05-09T21:19:49.498Z,3.53
2019-05-09T21:22:18.171Z,3.20
2019-05-09T21:24:46.822Z,3.13
2019-05-09T21:27:15.504Z,3.47
2019-05-09T21:29:44.418Z,3.00
2019-05-09T21:32:13.100Z,3.20
2019-05-09T21:34:41.565Z,3.70
2019-05-09T21:37:13.525Z,3.17
2019-05-09T21:39:40.310Z,3.10
2019-05-09T21:42:08.805Z,3.30
2019-05-09T21:44:37.269Z,3.10
2019-05-09T21:47:05.841Z,3.37
2019-05-09T21:49:34.296Z,3.00
2019-05-09T21:52:02.797Z,3.70
2019-05-09T21:54:31.267Z,3.00
2019-05-09T21:56:59.758Z,2.97
2019-05-09T21:59:28.234Z,3.10
2019-05-09T22:01:57.032Z,3.10
2019-05-09T22:04:25.497Z,3.02
2019-05-09T22:06:54.073Z,3.43
2019-05-09T22:09:22.607Z,2.95
2019-05-09T22:11:51.107Z,2.90
2019-05-09T22:14:19.566Z,3.30
2019-05-09T22:16:49.038Z,3.67
2019-05-09T22:19:17.510Z,4.22
2019-05-09T22:21:46.123Z,3.45
2019-05-09T22:24:14.662Z,3.70
2019-05-09T22:26:43.147Z,3.52
2019-05-09T22:29:15.229Z,3.37
2019-05-09T22:31:43.737Z,3.60
2019-05-09T22:34:12.201Z,3.72
2019-05-09T22:36:40.673Z,3.87
2019-05-09T22:39:09.160Z,3.42
2019-05-09T22:41:37.626Z,3.67
2019-05-09T22:44:06.190Z,3.80
2019-05-09T22:46:34.653Z,3.83
2019-05-09T22:49:03.219Z,4.30
2019-05-09T22:51:31.678Z,4.03
2019-05-09T22:54:12.389Z,3.87
2019-05-09T22:56:30.362Z,3.80
2019-05-09T22:58:58.861Z,3.73
2019-05-09T23:01:27.327Z,3.58
2019-05-09T23:03:55.824Z,3.67
2019-05-09T23:06:24.297Z,3.95
2019-05-09T23:08:52.795Z,3.92
2019-05-09T23:11:21.255Z,4.27
2019-05-09T23:13:52.479Z,3.80
2019-05-09T23:16:23.313Z,3.87
2019-05-09T23:18:51.802Z,3.90
2019-05-09T23:21:20.978Z,3.62
2019-05-09T23:24:05.948Z,3.95
2019-05-09T23:26:34.416Z,4.10
2019-05-09T23:29:02.916Z,3.92
2019-05-09T23:31:47.855Z,3.70
2019-05-09T23:34:16.347Z,3.97
2019-05-09T23:36:44.809Z,3.77
2019-05-09T23:39:14.941Z,3.85
2019-05-09T23:41:43.408Z,3.50
2019-05-09T23:44:11.903Z,3.80
2019-05-09T23:46:40.368Z,3.55
2019-05-09T23:49:09.997Z,3.58
2019-05-09T23:51:48.110Z,3.77
2019-05-09T23:54:46.116Z,3.05
2019-05-09T23:57:24.893Z,3.27
